createdAt,value
2018-07-19T00:00:44.461Z,39.37
2018-07-19T00:01:44.328Z,39.46
2018-07-19T00:02:44.305Z,39.36
2018-07-19T00:03:44.318Z,39.48
2018-07-19T00:04:44.281Z,39.37
2018-07-19T00:05:44.284Z,39.46
2018-07-19T00:06:44.252Z,39.48
2018-07-19T00:07:44.372Z,39.58
2018-07-19T00:08:44.279Z,39.58
2018-07-19T00:09:44.342Z,39.37
2018-07-19T00:10:44.318Z,39.58
2018-07-19T00:11:44.288Z,39.37
2018-07-19T00:12:44.192Z,39.58
2018-07-19T00:13:44.208Z,39.77
2018-07-19T00:14:44.323Z,39.67
2018-07-19T00:15:44.274Z,39.48
2018-07-19T00:16:44.205Z,39.77
2018-07-19T00:17:44.151Z,39.77
2018-07-19T00:18:44.288Z,39.77
2018-07-19T00:19:44.130Z,39.77
2018-07-19T00:20:44.119Z,39.58
2018-07-19T00:21:44.211Z,39.77
2018-07-19T00:22:44.091Z,39.48
2018-07-19T00:23:44.091Z,39.67
2018-07-19T00:24:44.073Z,39.58
2018-07-19T00:25:44.162Z,39.67
2018-07-19T00:26:44.058Z,39.37
2018-07-19T00:27:44.034Z,39.37
2018-07-19T00:28:44.034Z,39.58
2018-07-19T00:29:44.060Z,39.48
2018-07-19T00:30:44.022Z,39.67
2018-07-19T00:31:44.001Z,39.37
2018-07-19T00:32:43.987Z,39.48
2018-07-19T00:33:44.027Z,39.48
2018-07-19T00:34:45.988Z,39.48
2018-07-19T00:35:43.964Z,39.97
2018-07-19T00:36:44.097Z,39.37
2018-07-19T00:37:43.937Z,40.47
2018-07-19T00:38:44.055Z,39.59
2018-07-19T00:39:43.932Z,40.07
2018-07-19T00:40:43.895Z,39.40
2018-07-19T00:41:43.894Z,39.37
2018-07-19T00:42:43.874Z,39.48
2018-07-19T00:43:43.856Z,39.37
2018-07-19T00:44:44.040Z,40.09
2018-07-19T00:45:43.849Z,40.09
2018-07-19T00:46:43.955Z,40.17
2018-07-19T00:47:44.250Z,40.07
2018-07-19T00:48:43.804Z,39.87
2018-07-19T00:49:43.842Z,39.97
2018-07-19T00:50:43.815Z,40.09
2018-07-19T00:51:43.867Z,39.87
2018-07-19T00:52:43.774Z,40.09
2018-07-19T00:53:43.766Z,39.89
2018-07-19T00:54:43.774Z,40.09
2018-07-19T00:55:43.734Z,39.99
2018-07-19T00:56:43.783Z,40.48
2018-07-19T00:57:43.709Z,39.99
2018-07-19T00:58:43.716Z,40.48
2018-07-19T00:59:43.814Z,40.58
2018-07-19T01:00:43.787Z,40.39
2018-07-19T01:01:43.691Z,40.48
2018-07-19T01:02:43.658Z,40.48
2018-07-19T01:03:43.645Z,40.58
2018-07-19T01:04:43.685Z,40.48
2018-07-19T01:05:43.745Z,40.48
2018-07-19T01:06:43.713Z,40.78
2018-07-19T01:07:43.610Z,40.78
2018-07-19T01:08:43.794Z,40.19
2018-07-19T01:09:43.613Z,40.29
2018-07-19T01:10:43.591Z,40.29
2018-07-19T01:11:43.568Z,40.78
2018-07-19T01:12:43.554Z,40.19
2018-07-19T01:13:43.630Z,40.78
2018-07-19T01:14:44.121Z,40.09
2018-07-19T01:15:43.643Z,40.70
2018-07-19T01:16:43.571Z,40.48
2018-07-19T01:17:43.499Z,39.89
2018-07-19T01:18:43.498Z,40.41
2018-07-19T01:19:43.507Z,40.01
2018-07-19T01:20:43.593Z,40.11
2018-07-19T01:21:43.457Z,39.89
2018-07-19T01:22:43.460Z,40.09
2018-07-19T01:23:43.454Z,40.50
2018-07-19T01:24:43.469Z,40.01
2018-07-19T01:25:43.451Z,40.11
2018-07-19T01:26:43.569Z,40.01
2018-07-19T01:27:43.412Z,40.11
2018-07-19T01:28:43.413Z,39.91
2018-07-19T01:29:43.404Z,39.91
2018-07-19T01:30:43.366Z,39.91
2018-07-19T01:31:43.456Z,39.71
2018-07-19T01:32:43.456Z,39.71
2018-07-19T01:33:43.355Z,40.01
2018-07-19T01:34:43.319Z,39.81
2018-07-19T01:35:43.333Z,39.91
2018-07-19T01:36:43.372Z,39.91
2018-07-19T01:37:43.469Z,40.01
2018-07-19T01:38:43.288Z,39.81
2018-07-19T01:39:43.379Z,39.81
2018-07-19T01:40:43.303Z,39.81
2018-07-19T01:41:43.389Z,40.01
2018-07-19T01:42:43.249Z,40.50
2018-07-19T01:43:43.221Z,40.41
2018-07-19T01:44:43.348Z,40.41
2018-07-19T01:45:43.208Z,40.41
2018-07-19T01:46:43.196Z,40.31
2018-07-19T01:47:43.191Z,40.60
2018-07-19T01:48:43.163Z,40.60
2018-07-19T01:49:43.252Z,40.41
2018-07-19T01:50:43.237Z,40.60
2018-07-19T01:51:43.142Z,40.50
2018-07-19T01:52:43.258Z,40.62
2018-07-19T01:53:43.140Z,40.50
2018-07-19T01:54:43.125Z,40.50
2018-07-19T01:55:43.094Z,40.50
2018-07-19T01:56:43.094Z,41.00
2018-07-19T01:57:43.081Z,41.00
2018-07-19T01:58:43.066Z,40.72
2018-07-19T01:59:43.061Z,40.90
2018-07-19T02:00:43.048Z,41.02
2018-07-19T02:01:43.044Z,40.80
2018-07-19T02:02:43.037Z,41.00
2018-07-19T02:03:43.015Z,41.10
2018-07-19T02:04:42.997Z,41.00
2018-07-19T02:05:42.998Z,40.82
2018-07-19T02:06:42.988Z,41.12
2018-07-19T02:07:42.978Z,40.80
2018-07-19T02:08:42.982Z,40.70
2018-07-19T02:09:42.958Z,41.10
2018-07-19T02:10:42.967Z,40.70
2018-07-19T02:11:42.931Z,40.92
2018-07-19T02:12:42.958Z,40.82
2018-07-19T02:13:42.898Z,40.80
2018-07-19T02:14:42.893Z,41.02
2018-07-19T02:15:42.908Z,41.20
2018-07-19T02:16:42.885Z,41.41
2018-07-19T02:17:42.870Z,41.41
2018-07-19T02:18:42.857Z,41.12
2018-07-19T02:19:42.843Z,41.52
2018-07-19T02:20:42.961Z,41.10
2018-07-19T02:21:42.837Z,40.72
2018-07-19T02:22:42.803Z,41.52
2018-07-19T02:23:42.804Z,41.52
2018-07-19T02:24:42.781Z,40.92
2018-07-19T02:25:42.801Z,41.52
2018-07-19T02:26:42.779Z,41.52
2018-07-19T02:27:42.858Z,40.82
2018-07-19T02:28:42.757Z,40.92
2018-07-19T02:29:42.759Z,40.82
2018-07-19T02:30:42.749Z,40.92
2018-07-19T02:31:42.723Z,40.82
2018-07-19T02:32:42.721Z,40.82
2018-07-19T02:33:42.685Z,40.92
2018-07-19T02:34:42.790Z,40.82
2018-07-19T02:35:42.699Z,40.92
2018-07-19T02:36:42.663Z,41.02
2018-07-19T02:37:42.757Z,40.92
2018-07-19T02:38:42.640Z,40.82
2018-07-19T02:39:42.619Z,40.82
2018-07-19T02:40:42.754Z,40.92
2018-07-19T02:41:42.623Z,40.92
2018-07-19T02:42:42.588Z,40.82
2018-07-19T02:43:42.667Z,41.02
2018-07-19T02:44:42.576Z,41.02
2018-07-19T02:45:42.590Z,41.02
2018-07-19T02:46:42.560Z,41.02
2018-07-19T02:47:42.533Z,41.02
2018-07-19T02:48:42.528Z,41.22
2018-07-19T02:49:42.528Z,40.82
2018-07-19T02:50:42.512Z,41.02
2018-07-19T02:51:42.528Z,41.02
2018-07-19T02:52:42.492Z,41.22
2018-07-19T02:53:42.467Z,41.02
2018-07-19T02:54:42.463Z,41.22
2018-07-19T02:55:42.464Z,41.22
2018-07-19T02:56:42.466Z,41.41
2018-07-19T02:57:42.445Z,41.22
2018-07-19T02:58:42.542Z,41.22
2018-07-19T02:59:42.418Z,41.12
2018-07-19T03:00:42.762Z,41.14
2018-07-19T03:01:42.477Z,41.22
2018-07-19T03:02:42.549Z,40.82
2018-07-19T03:03:42.386Z,41.22
2018-07-19T03:04:42.572Z,41.14
2018-07-19T03:05:42.337Z,41.02
2018-07-19T03:06:42.464Z,41.14
2018-07-19T03:07:42.468Z,41.12
2018-07-19T03:08:42.314Z,41.04
2018-07-19T03:09:42.303Z,41.14
2018-07-19T03:10:42.396Z,41.02
2018-07-19T03:11:42.417Z,41.14
2018-07-19T03:12:42.383Z,41.14
2018-07-19T03:13:42.954Z,41.14
2018-07-19T03:14:42.243Z,41.14
2018-07-19T03:15:42.245Z,41.14
2018-07-19T03:16:42.259Z,41.14
2018-07-19T03:17:42.331Z,41.14
2018-07-19T03:18:42.212Z,41.14
2018-07-19T03:19:42.292Z,41.14
2018-07-19T03:20:42.181Z,41.14
2018-07-19T03:21:42.689Z,41.14
2018-07-19T03:22:42.166Z,41.14
2018-07-19T03:23:42.149Z,41.14
2018-07-19T03:24:42.159Z,41.14
2018-07-19T03:25:42.143Z,41.14
2018-07-19T03:26:42.139Z,41.44
2018-07-19T03:27:42.246Z,41.24
2018-07-19T03:28:42.094Z,41.14
2018-07-19T03:29:42.083Z,41.24
2018-07-19T03:30:42.201Z,41.24
2018-07-19T03:31:42.076Z,41.44
2018-07-19T03:32:42.254Z,41.44
2018-07-19T03:33:42.064Z,41.33
2018-07-19T03:34:42.089Z,41.44
2018-07-19T03:35:42.027Z,41.44
2018-07-19T03:36:42.047Z,41.44
2018-07-19T03:37:42.009Z,41.44
2018-07-19T03:38:41.989Z,41.53
2018-07-19T03:39:42.009Z,41.14
2018-07-19T03:40:41.973Z,41.44
2018-07-19T03:41:41.953Z,41.53
2018-07-19T03:42:42.074Z,41.44
2018-07-19T03:43:41.961Z,41.44
2018-07-19T03:44:41.924Z,41.53
2018-07-19T03:45:43.576Z,41.53
2018-07-19T03:46:41.928Z,41.04
2018-07-19T03:47:41.987Z,41.44
2018-07-19T03:48:41.911Z,41.24
2018-07-19T03:49:41.937Z,41.93
2018-07-19T03:50:41.871Z,41.14
2018-07-19T03:51:41.845Z,41.04
2018-07-19T03:52:41.854Z,41.53
2018-07-19T03:53:41.890Z,41.63
2018-07-19T03:54:41.818Z,40.84
2018-07-19T03:55:41.821Z,41.63
2018-07-19T03:56:41.805Z,41.44
2018-07-19T03:57:42.602Z,41.24
2018-07-19T03:58:41.772Z,41.24
2018-07-19T03:59:41.773Z,41.24
2018-07-19T04:00:42.132Z,41.04
2018-07-19T04:01:41.751Z,41.04
2018-07-19T04:02:41.744Z,41.24
2018-07-19T04:03:41.719Z,41.55
2018-07-19T04:04:41.709Z,41.53
2018-07-19T04:05:41.819Z,41.46
2018-07-19T04:06:42.341Z,40.94
2018-07-19T04:07:41.707Z,40.74
2018-07-19T04:08:41.671Z,41.53
2018-07-19T04:09:41.655Z,41.24
2018-07-19T04:10:41.653Z,41.53
2018-07-19T04:11:41.637Z,41.93
2018-07-19T04:12:41.637Z,41.24
2018-07-19T04:13:41.610Z,41.04
2018-07-19T04:14:41.728Z,40.84
2018-07-19T04:15:41.603Z,41.33
2018-07-19T04:16:41.606Z,41.53
2018-07-19T04:17:41.586Z,41.53
2018-07-19T04:18:41.563Z,40.96
2018-07-19T04:19:41.557Z,41.46
2018-07-19T04:20:41.555Z,41.04
2018-07-19T04:21:41.535Z,41.53
2018-07-19T04:22:41.547Z,41.44
2018-07-19T04:23:41.684Z,41.46
2018-07-19T04:24:41.644Z,41.55
2018-07-19T04:25:41.507Z,41.04
2018-07-19T04:26:41.496Z,40.94
2018-07-19T04:27:41.477Z,41.14
2018-07-19T04:28:41.499Z,41.26
2018-07-19T04:29:41.445Z,40.96
2018-07-19T04:30:41.448Z,41.24
2018-07-19T04:31:41.419Z,40.86
2018-07-19T04:32:41.423Z,40.84
2018-07-19T04:33:41.507Z,41.93
2018-07-19T04:34:41.424Z,41.66
2018-07-19T04:35:41.516Z,41.26
2018-07-19T04:36:41.364Z,41.16
2018-07-19T04:37:41.425Z,41.55
2018-07-19T04:38:41.361Z,41.46
2018-07-19T04:39:41.453Z,41.26
2018-07-19T04:40:41.327Z,41.55
2018-07-19T04:41:41.447Z,41.55
2018-07-19T04:42:41.317Z,41.55
2018-07-19T04:43:41.321Z,41.26
2018-07-19T04:44:41.289Z,41.26
2018-07-19T04:45:41.272Z,41.55
2018-07-19T04:46:41.393Z,41.46
2018-07-19T04:47:41.389Z,41.85
2018-07-19T04:48:41.284Z,41.33
2018-07-19T04:49:41.306Z,41.26
2018-07-19T04:50:41.226Z,41.16
2018-07-19T04:51:41.217Z,41.46
2018-07-19T04:52:41.204Z,41.26
2018-07-19T04:53:41.311Z,41.16
2018-07-19T04:54:41.333Z,41.26
2018-07-19T04:55:41.161Z,41.26
2018-07-19T04:56:41.295Z,41.55
2018-07-19T04:57:41.179Z,41.26
2018-07-19T04:58:41.269Z,41.16
2018-07-19T04:59:41.258Z,41.55
2018-07-19T05:00:41.146Z,41.26
2018-07-19T05:01:41.196Z,41.55
2018-07-19T05:02:41.188Z,41.26
2018-07-19T05:03:41.090Z,41.16
2018-07-19T05:04:41.778Z,41.16
2018-07-19T05:05:41.065Z,41.55
2018-07-19T05:06:41.060Z,41.26
2018-07-19T05:07:41.034Z,41.26
2018-07-19T05:08:41.173Z,41.55
2018-07-19T05:09:41.025Z,41.95
2018-07-19T05:10:41.015Z,41.55
2018-07-19T05:11:41.011Z,41.06
2018-07-19T05:12:41.480Z,41.46
2018-07-19T05:13:41.138Z,41.55
2018-07-19T05:14:40.972Z,41.46
2018-07-19T05:15:40.946Z,41.46
2018-07-19T05:16:41.090Z,41.06
2018-07-19T05:17:41.161Z,41.46
2018-07-19T05:18:41.091Z,41.46
2018-07-19T05:19:40.912Z,41.46
2018-07-19T05:20:40.905Z,41.46
2018-07-19T05:21:40.890Z,41.26
2018-07-19T05:22:40.869Z,41.46
2018-07-19T05:23:40.873Z,41.36
2018-07-19T05:24:40.881Z,41.55
2018-07-19T05:25:40.972Z,41.06
2018-07-19T05:26:40.838Z,41.66
2018-07-19T05:27:40.851Z,41.16
2018-07-19T05:28:40.821Z,41.16
2018-07-19T05:29:41.087Z,41.16
2018-07-19T05:30:40.790Z,41.26
2018-07-19T05:31:40.787Z,41.16
2018-07-19T05:32:40.911Z,41.26
2018-07-19T05:33:40.873Z,41.26
2018-07-19T05:34:40.912Z,41.16
2018-07-19T05:35:40.743Z,41.16
2018-07-19T05:36:40.841Z,41.26
2018-07-19T05:37:40.714Z,41.16
2018-07-19T05:38:40.834Z,41.36
2018-07-19T05:39:41.668Z,41.26
2018-07-19T05:40:40.682Z,41.55
2018-07-19T05:41:40.716Z,41.26
2018-07-19T05:42:40.802Z,41.26
2018-07-19T05:43:40.669Z,41.36
2018-07-19T05:44:40.796Z,41.75
2018-07-19T05:45:40.697Z,41.85
2018-07-19T05:46:40.615Z,41.93
2018-07-19T05:47:40.701Z,41.75
2018-07-19T05:48:40.615Z,41.85
2018-07-19T05:49:40.712Z,42.03
2018-07-19T05:50:40.579Z,41.85
2018-07-19T05:51:41.410Z,42.05
2018-07-19T05:52:40.670Z,41.93
2018-07-19T05:53:40.653Z,41.85
2018-07-19T05:54:40.558Z,41.55
2018-07-19T05:55:40.578Z,41.55
2018-07-19T05:56:40.559Z,42.05
2018-07-19T05:57:40.648Z,41.55
2018-07-19T05:58:40.606Z,41.63
2018-07-19T05:59:40.477Z,41.95
2018-07-19T06:00:40.464Z,41.85
2018-07-19T06:01:40.472Z,41.55
2018-07-19T06:02:40.460Z,41.66
2018-07-19T06:03:40.606Z,41.55
2018-07-19T06:04:40.540Z,42.05
2018-07-19T06:05:47.339Z,41.55
2018-07-19T06:06:40.509Z,41.55
2018-07-19T06:07:40.400Z,41.73
2018-07-19T06:08:40.762Z,41.66
2018-07-19T06:09:40.558Z,41.66
2018-07-19T06:10:41.730Z,41.75
2018-07-19T06:11:40.355Z,41.85
2018-07-19T06:12:40.464Z,41.75
2018-07-19T06:13:40.342Z,41.75
2018-07-19T06:14:40.326Z,41.73
2018-07-19T06:15:40.311Z,41.85
2018-07-19T06:16:40.432Z,41.73
2018-07-19T06:17:40.410Z,41.85
2018-07-19T06:18:40.335Z,41.83
2018-07-19T06:19:40.276Z,41.83
2018-07-19T06:20:40.251Z,41.83
2018-07-19T06:21:40.243Z,41.83
2018-07-19T06:22:40.318Z,41.83
2018-07-19T06:23:40.220Z,41.83
2018-07-19T06:24:40.512Z,41.83
2018-07-19T06:25:40.286Z,41.55
2018-07-19T06:26:40.213Z,41.63
2018-07-19T06:27:40.191Z,41.93
2018-07-19T06:28:40.163Z,41.95
2018-07-19T06:29:40.273Z,41.83
2018-07-19T06:30:40.270Z,41.53
2018-07-19T06:31:40.279Z,41.85
2018-07-19T06:32:40.238Z,41.53
2018-07-19T06:33:40.127Z,41.53
2018-07-19T06:34:40.136Z,41.53
2018-07-19T06:35:40.196Z,41.53
2018-07-19T06:36:40.084Z,41.53
2018-07-19T06:37:40.188Z,41.63
2018-07-19T06:38:40.098Z,41.93
2018-07-19T06:39:40.188Z,41.93
2018-07-19T06:40:40.044Z,41.53
2018-07-19T06:41:40.049Z,41.53
2018-07-19T06:42:40.012Z,41.83
2018-07-19T06:43:40.163Z,41.53
2018-07-19T06:44:40.122Z,42.03
2018-07-19T06:45:39.982Z,41.63
2018-07-19T06:46:40.111Z,41.53
2018-07-19T06:47:39.986Z,41.93
2018-07-19T06:48:40.070Z,41.53
2018-07-19T06:49:40.125Z,41.53
2018-07-19T06:50:40.047Z,41.63
2018-07-19T06:51:40.198Z,41.63
2018-07-19T06:52:40.034Z,41.85
2018-07-19T06:53:39.912Z,41.93
2018-07-19T06:54:40.015Z,41.83
2018-07-19T06:55:39.951Z,41.44
2018-07-19T06:56:39.973Z,41.75
2018-07-19T06:57:39.857Z,41.93
2018-07-19T06:58:39.989Z,42.03
2018-07-19T06:59:39.974Z,41.53
2018-07-19T07:00:39.974Z,41.63
2018-07-19T07:01:39.937Z,41.93
2018-07-19T07:02:39.988Z,41.53
2018-07-19T07:03:39.926Z,41.53
2018-07-19T07:04:39.846Z,41.53
2018-07-19T07:05:39.793Z,41.73
2018-07-19T07:06:40.497Z,41.53
2018-07-19T07:07:39.886Z,41.53
2018-07-19T07:08:39.770Z,41.53
2018-07-19T07:09:39.737Z,41.53
2018-07-19T07:10:39.790Z,41.83
2018-07-19T07:11:39.723Z,41.53
2018-07-19T07:12:39.826Z,41.53
2018-07-19T07:13:39.750Z,41.83
2018-07-19T07:14:39.830Z,41.73
2018-07-19T07:15:39.803Z,41.53
2018-07-19T07:16:39.796Z,41.83
2018-07-19T07:17:39.753Z,41.53
2018-07-19T07:18:39.738Z,41.53
2018-07-19T07:19:39.773Z,41.53
2018-07-19T07:20:39.704Z,41.53
2018-07-19T07:21:39.760Z,41.53
2018-07-19T07:22:39.691Z,41.83
2018-07-19T07:23:39.721Z,41.63
2018-07-19T07:24:39.673Z,41.83
2018-07-19T07:25:39.679Z,42.03
2018-07-19T07:26:39.548Z,41.53
2018-07-19T07:27:39.686Z,41.93
2018-07-19T07:28:39.625Z,41.53
2018-07-19T07:29:39.662Z,41.83
2018-07-19T07:30:39.524Z,41.83
2018-07-19T07:31:39.609Z,41.53
2018-07-19T07:32:39.482Z,41.83
2018-07-19T07:33:39.592Z,41.83
2018-07-19T07:34:39.624Z,41.93
2018-07-19T07:35:39.513Z,41.83
2018-07-19T07:36:39.454Z,41.73
2018-07-19T07:37:39.461Z,41.83
2018-07-19T07:38:39.566Z,41.73
2018-07-19T07:39:39.629Z,41.73
2018-07-19T07:40:39.561Z,41.73
2018-07-19T07:41:39.572Z,41.73
2018-07-19T07:42:39.530Z,41.53
2018-07-19T07:43:39.363Z,41.53
2018-07-19T07:44:39.502Z,41.73
2018-07-19T07:45:39.468Z,41.53
2018-07-19T07:46:39.453Z,41.53
2018-07-19T07:47:39.466Z,41.63
2018-07-19T07:48:39.329Z,42.03
2018-07-19T07:49:40.053Z,41.53
2018-07-19T07:50:39.426Z,42.03
2018-07-19T07:51:39.272Z,41.93
2018-07-19T07:52:39.341Z,41.83
2018-07-19T07:53:39.420Z,41.73
2018-07-19T07:54:42.238Z,41.73
2018-07-19T07:55:39.690Z,41.81
2018-07-19T07:56:39.345Z,41.81
2018-07-19T07:57:39.334Z,41.22
2018-07-19T07:58:39.375Z,41.24
2018-07-19T07:59:39.366Z,41.24
2018-07-19T08:00:39.318Z,41.22
2018-07-19T08:01:39.678Z,41.53
2018-07-19T08:02:39.337Z,41.12
2018-07-19T08:03:39.239Z,41.41
2018-07-19T08:04:39.288Z,41.41
2018-07-19T08:05:39.289Z,41.61
2018-07-19T08:06:39.147Z,41.91
2018-07-19T08:07:39.201Z,41.52
2018-07-19T08:08:39.099Z,41.22
2018-07-19T08:09:39.208Z,41.12
2018-07-19T08:10:39.099Z,41.12
2018-07-19T08:11:39.073Z,41.22
2018-07-19T08:12:39.076Z,40.82
2018-07-19T08:13:39.189Z,41.02
2018-07-19T08:14:39.226Z,40.92
2018-07-19T08:15:39.178Z,41.22
2018-07-19T08:16:39.134Z,41.31
2018-07-19T08:17:39.102Z,41.31
2018-07-19T08:18:39.032Z,41.10
2018-07-19T08:19:39.181Z,41.12
2018-07-19T08:20:39.151Z,41.12
2018-07-19T08:21:39.224Z,40.52
2018-07-19T08:22:39.094Z,40.41
2018-07-19T08:23:38.999Z,40.60
2018-07-19T08:24:39.036Z,40.50
2018-07-19T08:25:39.041Z,39.73
2018-07-19T08:26:38.900Z,40.03
2018-07-19T08:27:38.993Z,40.70
2018-07-19T08:28:38.908Z,40.20
2018-07-19T08:29:39.193Z,40.11
2018-07-19T08:30:38.983Z,40.11
2018-07-19T08:31:38.983Z,40.70
2018-07-19T08:32:38.925Z,40.11
2018-07-19T08:33:38.945Z,40.11
2018-07-19T08:34:39.025Z,40.50
2018-07-19T08:35:38.940Z,40.70
2018-07-19T08:36:38.945Z,40.01
2018-07-19T08:37:38.911Z,40.80
2018-07-19T08:38:38.848Z,40.31
2018-07-19T08:39:39.752Z,40.80
2018-07-19T08:40:38.937Z,40.70
2018-07-19T08:41:38.742Z,40.70
2018-07-19T08:42:38.846Z,40.70
2018-07-19T08:43:38.882Z,40.60
2018-07-19T08:44:38.868Z,40.50
2018-07-19T08:45:38.737Z,40.50
2018-07-19T08:46:38.701Z,40.11
2018-07-19T08:47:38.799Z,40.50
2018-07-19T08:48:38.827Z,40.11
2018-07-19T08:49:38.725Z,40.20
2018-07-19T08:50:38.782Z,40.09
2018-07-19T08:51:38.763Z,40.11
2018-07-19T08:52:38.801Z,39.51
2018-07-19T08:53:38.705Z,39.51
2018-07-19T08:54:38.643Z,39.51
2018-07-19T08:55:38.739Z,39.42
2018-07-19T08:56:38.666Z,39.40
2018-07-19T08:57:38.688Z,39.40
2018-07-19T08:58:38.550Z,39.69
2018-07-19T08:59:38.561Z,39.99
2018-07-19T09:00:38.684Z,39.50
2018-07-19T09:01:38.675Z,39.40
2018-07-19T09:02:38.512Z,39.50
2018-07-19T09:03:38.506Z,39.40
2018-07-19T09:04:38.526Z,39.69
2018-07-19T09:05:38.612Z,39.50
2018-07-19T09:06:38.486Z,39.29
2018-07-19T09:07:38.612Z,39.69
2018-07-19T09:08:38.469Z,39.69
2018-07-19T09:09:38.592Z,39.69
2018-07-19T09:10:38.518Z,39.50
2018-07-19T09:11:38.468Z,39.69
2018-07-19T09:12:38.510Z,39.69
2018-07-19T09:13:38.393Z,39.69
2018-07-19T09:14:38.437Z,39.69
2018-07-19T09:15:38.513Z,39.79
2018-07-19T09:16:38.841Z,39.69
2018-07-19T09:17:38.367Z,39.50
2018-07-19T09:18:38.338Z,39.99
2018-07-19T09:19:38.589Z,39.59
2018-07-19T09:20:48.787Z,39.69
2018-07-19T09:21:38.432Z,39.79
2018-07-19T09:22:38.485Z,39.40
2018-07-19T09:23:38.304Z,39.79
2018-07-19T09:24:38.291Z,39.79
2018-07-19T09:25:38.266Z,39.79
2018-07-19T09:26:38.316Z,39.79
2018-07-19T09:27:38.365Z,39.89
2018-07-19T09:28:38.406Z,39.50
2018-07-19T09:29:38.286Z,39.40
2018-07-19T09:30:38.341Z,39.40
2018-07-19T09:31:38.281Z,39.40
2018-07-19T09:32:38.385Z,39.50
2018-07-19T09:33:38.276Z,39.50
2018-07-19T09:34:38.303Z,39.79
2018-07-19T09:35:38.301Z,39.69
2018-07-19T09:36:38.241Z,39.69
2018-07-19T09:37:38.328Z,39.50
2018-07-19T09:38:38.238Z,39.50
2018-07-19T09:39:38.122Z,39.79
2018-07-19T09:40:38.121Z,39.79
2018-07-19T09:41:38.257Z,39.50
2018-07-19T09:42:38.222Z,39.50
2018-07-19T09:43:38.122Z,39.69
2018-07-19T09:44:38.067Z,39.50
2018-07-19T09:45:38.050Z,40.09
2018-07-19T09:46:38.954Z,39.50
2018-07-19T09:47:38.181Z,40.09
2018-07-19T09:48:38.131Z,39.69
2018-07-19T09:49:38.178Z,39.50
2018-07-19T09:50:38.005Z,40.39
2018-07-19T09:51:38.107Z,39.50
2018-07-19T09:52:38.108Z,39.79
2018-07-19T09:53:38.296Z,39.50
2018-07-19T09:54:37.980Z,39.50
2018-07-19T09:55:38.074Z,39.50
2018-07-19T09:56:37.950Z,39.40
2018-07-19T09:57:38.051Z,40.19
2018-07-19T09:58:38.093Z,39.50
2018-07-19T09:59:38.050Z,39.69
2018-07-19T10:00:37.891Z,39.79
2018-07-19T10:01:37.909Z,39.69
2018-07-19T10:02:38.008Z,39.48
2018-07-19T10:03:37.976Z,39.99
2018-07-19T10:04:37.935Z,39.59
2018-07-19T10:05:37.931Z,39.50
2018-07-19T10:06:40.846Z,39.58
2018-07-19T10:07:39.374Z,39.69
2018-07-19T10:08:37.824Z,39.50
2018-07-19T10:09:37.986Z,39.77
2018-07-19T10:10:37.787Z,39.67
2018-07-19T10:11:37.951Z,39.37
2018-07-19T10:12:37.773Z,39.77
2018-07-19T10:13:37.979Z,39.79
2018-07-19T10:14:37.841Z,39.77
2018-07-19T10:15:37.833Z,39.77
2018-07-19T10:16:37.916Z,39.67
2018-07-19T10:17:37.715Z,39.67
2018-07-19T10:18:37.901Z,39.48
2018-07-19T10:19:37.888Z,39.67
2018-07-19T10:20:37.900Z,39.67
2018-07-19T10:21:37.697Z,39.58
2018-07-19T10:22:37.799Z,39.48
2018-07-19T10:23:37.682Z,39.37
2018-07-19T10:24:37.749Z,39.48
2018-07-19T10:25:37.701Z,39.48
2018-07-19T10:26:37.716Z,39.48
2018-07-19T10:27:37.758Z,39.48
2018-07-19T10:28:37.665Z,40.17
2018-07-19T10:29:37.604Z,40.17
2018-07-19T10:30:37.570Z,40.17
2018-07-19T10:31:37.713Z,39.97
2018-07-19T10:32:37.721Z,39.87
2018-07-19T10:33:37.674Z,40.17
2018-07-19T10:34:37.564Z,40.17
2018-07-19T10:35:37.692Z,39.97
2018-07-19T10:36:38.418Z,39.37
2018-07-19T10:37:37.676Z,40.07
2018-07-19T10:38:37.525Z,39.48
2018-07-19T10:39:37.509Z,39.58
2018-07-19T10:40:37.815Z,39.58
2018-07-19T10:41:37.572Z,39.67
2018-07-19T10:45:07.661Z,39.08
2018-07-19T10:45:37.585Z,39.48
2018-07-19T10:46:37.579Z,38.78
2018-07-19T10:47:37.419Z,38.76
2018-07-19T10:48:37.497Z,38.76
2018-07-19T10:49:37.527Z,38.78
2018-07-19T10:50:37.524Z,39.06
2018-07-19T10:51:37.467Z,39.56
2018-07-19T10:52:37.473Z,39.06
2018-07-19T10:53:37.366Z,39.56
2018-07-19T10:54:37.320Z,38.86
2018-07-19T10:55:37.305Z,38.96
2018-07-19T10:56:37.451Z,38.96
2018-07-19T10:57:37.407Z,39.26
2018-07-19T10:58:37.294Z,39.16
2018-07-19T10:59:37.396Z,39.06
2018-07-19T11:00:38.465Z,38.86
2018-07-19T11:01:37.363Z,39.06
2018-07-19T11:02:37.399Z,38.86
2018-07-19T11:03:37.410Z,38.67
2018-07-19T11:04:37.349Z,39.16
2018-07-19T11:05:37.381Z,38.57
2018-07-19T11:06:37.330Z,39.16
2018-07-19T11:07:37.363Z,38.57
2018-07-19T11:08:37.240Z,38.86
2018-07-19T11:09:37.375Z,38.57
2018-07-19T11:10:37.272Z,38.57
2018-07-19T11:11:37.146Z,38.67
2018-07-19T11:12:37.279Z,39.04
2018-07-19T11:13:37.212Z,38.37
2018-07-19T11:14:37.140Z,38.65
2018-07-19T11:15:37.092Z,38.86
2018-07-19T11:16:37.236Z,39.06
2018-07-19T11:17:37.229Z,38.86
2018-07-19T11:18:37.090Z,39.06
2018-07-19T11:19:37.151Z,38.86
2018-07-19T11:20:37.056Z,38.76
2018-07-19T11:21:37.050Z,39.14
2018-07-19T11:22:37.215Z,38.94
2018-07-19T11:23:37.171Z,38.94
2018-07-19T11:24:37.200Z,38.84
2018-07-19T11:25:38.379Z,39.04
2018-07-19T11:26:37.130Z,38.84
2018-07-19T11:27:37.004Z,38.94
2018-07-19T11:28:37.125Z,38.65
2018-07-19T11:29:37.092Z,39.14
2018-07-19T11:30:37.078Z,39.04
2018-07-19T11:31:37.117Z,39.04
2018-07-19T11:32:37.078Z,38.94
2018-07-19T11:33:36.923Z,38.94
2018-07-19T11:34:37.045Z,38.84
2018-07-19T11:35:37.060Z,38.84
2018-07-19T11:36:37.056Z,38.84
2018-07-19T11:37:37.006Z,38.94
2018-07-19T11:38:36.998Z,39.04
2018-07-19T11:39:36.877Z,38.84
2018-07-19T11:40:36.968Z,38.94
2018-07-19T11:41:37.028Z,38.94
2018-07-19T11:42:36.933Z,38.94
2018-07-19T11:43:36.925Z,38.84
2018-07-19T11:44:36.829Z,38.94
2018-07-19T11:45:36.906Z,38.94
2018-07-19T11:46:36.930Z,38.84
2018-07-19T11:47:36.936Z,39.12
2018-07-19T11:48:36.874Z,38.65
2018-07-19T11:49:36.851Z,38.94
2018-07-19T11:50:37.053Z,39.04
2018-07-19T11:51:36.855Z,38.75
2018-07-19T11:52:36.920Z,38.73
2018-07-19T11:53:36.851Z,38.53
2018-07-19T11:54:36.857Z,39.03
2018-07-19T11:55:36.870Z,38.73
2018-07-19T11:56:37.096Z,38.73
2018-07-19T11:57:36.689Z,38.75
2018-07-19T11:58:36.785Z,38.75
2018-07-19T11:59:36.774Z,38.53
2018-07-19T12:00:36.738Z,38.53
2018-07-19T12:01:36.752Z,38.63
2018-07-19T12:02:36.824Z,38.53
2018-07-19T12:03:36.738Z,38.33
2018-07-19T12:04:36.703Z,38.63
2018-07-19T12:05:36.765Z,38.23
2018-07-19T12:06:36.694Z,38.23
2018-07-19T12:07:36.581Z,38.53
2018-07-19T12:08:36.692Z,38.53
2018-07-19T12:09:36.548Z,38.92
2018-07-19T12:10:36.713Z,38.53
2018-07-19T12:11:36.657Z,38.23
2018-07-19T12:12:36.651Z,38.23
2018-07-19T12:13:36.595Z,38.82
2018-07-19T12:14:36.654Z,38.63
2018-07-19T12:15:36.606Z,38.53
2018-07-19T12:16:36.613Z,38.63
2018-07-19T12:17:36.554Z,38.13
2018-07-19T12:18:36.587Z,38.23
2018-07-19T12:19:36.572Z,38.23
2018-07-19T12:20:36.551Z,38.43
2018-07-19T12:21:36.534Z,37.62
2018-07-19T12:22:36.520Z,38.12
2018-07-19T12:23:36.571Z,37.72
2018-07-19T12:24:36.399Z,37.82
2018-07-19T12:25:36.529Z,37.23
2018-07-19T12:26:36.496Z,37.43
2018-07-19T12:27:36.477Z,37.72
2018-07-19T12:28:36.475Z,37.32
2018-07-19T12:29:36.530Z,37.92
2018-07-19T12:30:36.464Z,37.62
2018-07-19T12:31:36.480Z,37.62
2018-07-19T12:32:36.327Z,37.43
2018-07-19T12:33:36.435Z,37.72
2018-07-19T12:34:36.450Z,37.72
2018-07-19T12:35:36.258Z,37.62
2018-07-19T12:36:36.267Z,37.23
2018-07-19T12:37:37.680Z,37.43
2018-07-19T12:38:36.421Z,37.43
2018-07-19T12:39:36.238Z,37.82
2018-07-19T12:40:36.448Z,37.51
2018-07-19T12:41:36.380Z,37.90
2018-07-19T12:42:36.351Z,37.51
2018-07-19T12:43:36.265Z,37.90
2018-07-19T12:44:36.343Z,37.60
2018-07-19T12:45:36.319Z,37.41
2018-07-19T12:46:36.276Z,37.80
2018-07-19T12:47:36.273Z,37.51
2018-07-19T12:48:36.263Z,37.60
2018-07-19T12:49:36.401Z,37.80
2018-07-19T12:50:36.276Z,38.00
2018-07-19T12:51:36.227Z,37.60
2018-07-19T12:52:36.116Z,37.78
2018-07-19T12:53:36.199Z,37.39
2018-07-19T12:54:36.183Z,38.28